createdAt,value
2023-02-15T00:00:11.349Z,-0.10
2023-02-15T00:02:38.065Z,-0.14
2023-02-15T00:05:05.168Z,-0.13
2023-02-15T00:07:31.635Z,-0.15
2023-02-15T00:09:58.183Z,-0.20
2023-02-15T00:12:24.920Z,-0.24
2023-02-15T00:14:51.325Z,-0.23
2023-02-15T00:17:18.090Z,-0.28
2023-02-15T00:38:31.872Z,-0.39
2023-02-15T00:40:59.854Z,-0.48
2023-02-15T00:43:27.970Z,-0.45
2023-02-15T00:45:54.813Z,-0.41
2023-02-15T00:48:22.186Z,-0.47
2023-02-15T00:50:54.830Z,-0.50
2023-02-15T00:53:21.923Z,-0.46
2023-02-15T00:55:48.490Z,-0.47
2023-02-15T00:58:15.718Z,-0.59
2023-02-15T01:00:44.518Z,-0.58
2023-02-15T01:03:12.655Z,-0.54
2023-02-15T01:05:39.390Z,-0.53
2023-02-15T01:08:06.470Z,-0.53
2023-02-15T01:10:34.749Z,-0.58
2023-02-15T01:13:01.359Z,-0.61
2023-02-15T01:15:27.912Z,-0.56
2023-02-15T01:17:54.531Z,-0.59
2023-02-15T01:20:22.954Z,-0.67
2023-02-15T01:22:50.775Z,-0.63
2023-02-15T01:25:18.261Z,-0.60
2023-02-15T01:27:45.421Z,-0.66
2023-02-15T01:30:13.494Z,-0.69
2023-02-15T01:32:40.635Z,-0.75
2023-02-15T01:35:07.900Z,-0.75
2023-02-15T01:37:35.409Z,-0.74
2023-02-15T01:40:04.992Z,-0.71
2023-02-15T01:42:31.491Z,-0.71
2023-02-15T01:45:00.663Z,-0.71
2023-02-15T01:47:39.641Z,-0.74
2023-02-15T01:50:12.226Z,-0.73
2023-02-15T01:52:46.347Z,-0.81
2023-02-15T01:55:13.652Z,-0.76
2023-02-15T01:57:40.878Z,-0.86
2023-02-15T02:00:09.456Z,-0.88
2023-02-15T02:02:36.785Z,-0.83
2023-02-15T02:08:44.781Z,-0.86
2023-02-15T02:11:13.053Z,-0.84
2023-02-15T02:13:44.348Z,-0.88
2023-02-15T02:16:19.939Z,-0.92
2023-02-15T02:19:23.190Z,-0.91
2023-02-15T02:22:08.155Z,-0.97
2023-02-15T02:25:02.118Z,-1.01
2023-02-15T02:27:41.033Z,-1.05
2023-02-15T02:30:26.019Z,-1.06
2023-02-15T02:33:46.309Z,-1.06
2023-02-15T02:36:22.957Z,-1.07
2023-02-15T02:38:55.822Z,-1.03
2023-02-15T02:41:48.210Z,-1.05
2023-02-15T02:44:20.113Z,-1.07
2023-02-15T02:47:21.333Z,-1.12
2023-02-15T02:49:47.842Z,-1.14
2023-02-15T02:52:52.221Z,-1.18
2023-02-15T02:55:27.417Z,-1.24
2023-02-15T02:58:15.194Z,-1.26
2023-02-15T03:00:56.462Z,-1.29
2023-02-15T03:03:38.759Z,-1.35
2023-02-15T03:06:11.898Z,-1.34
2023-02-15T03:08:44.127Z,-1.38
2023-02-15T03:11:12.528Z,-1.42
2023-02-15T03:13:40.439Z,-1.50
2023-02-15T03:16:27.938Z,-1.52
2023-02-15T03:19:12.235Z,-1.46
2023-02-15T03:22:04.814Z,-1.48
2023-02-15T03:24:42.616Z,-1.48
2023-02-15T03:27:18.453Z,-1.60
2023-02-15T03:29:49.971Z,-1.61
2023-02-15T03:32:16.746Z,-1.54
2023-02-15T03:34:44.989Z,-1.58
2023-02-15T03:37:20.959Z,-1.75
2023-02-15T03:39:57.501Z,-1.68
2023-02-15T03:42:30.407Z,-1.79
2023-02-15T03:44:59.789Z,-1.84
2023-02-15T03:47:34.733Z,-1.84
2023-02-15T03:50:36.101Z,-1.83
2023-02-15T03:53:05.887Z,-1.77
2023-02-15T03:55:34.534Z,-1.93
2023-02-15T03:58:19.638Z,-1.93
2023-02-15T04:01:20.163Z,-1.97
2023-02-15T04:03:56.205Z,-1.99
2023-02-15T04:06:22.725Z,-1.99
2023-02-15T04:09:07.888Z,-2.11
2023-02-15T04:11:34.426Z,-2.12
2023-02-15T04:14:20.872Z,-2.11
2023-02-15T04:16:47.621Z,-2.11
2023-02-15T04:19:32.558Z,-2.10
2023-02-15T04:22:17.648Z,-2.15
2023-02-15T04:25:02.848Z,-2.24
2023-02-15T04:27:29.318Z,-2.28
2023-02-15T04:29:55.847Z,-2.17
2023-02-15T04:32:22.357Z,-2.27
2023-02-15T04:34:48.784Z,-2.28
2023-02-15T04:37:15.238Z,-2.33
2023-02-15T04:39:41.852Z,-2.41
2023-02-15T04:42:08.272Z,-2.51
2023-02-15T04:44:34.685Z,-2.47
2023-02-15T04:47:01.126Z,-2.68
2023-02-15T04:49:27.577Z,-2.73
2023-02-15T04:51:54.111Z,-2.76
2023-02-15T04:54:20.654Z,-2.83
2023-02-15T04:56:47.079Z,-2.67
2023-02-15T04:59:14.570Z,-2.74
2023-02-15T05:01:41.373Z,-2.82
2023-02-15T05:04:08.434Z,-2.78
2023-02-15T05:06:35.151Z,-2.84
2023-02-15T05:09:01.941Z,-2.85
2023-02-15T05:11:28.492Z,-2.95
2023-02-15T05:13:55.133Z,-3.04
2023-02-15T05:16:21.592Z,-2.93
2023-02-15T05:18:48.046Z,-2.96
2023-02-15T05:21:14.842Z,-2.95
2023-02-15T05:23:41.269Z,-2.95
2023-02-15T05:26:28.587Z,-2.89
2023-02-15T05:28:55.105Z,-2.93
2023-02-15T05:31:21.709Z,-3.00
2023-02-15T07:10:35.018Z,-3.39
2023-02-15T07:13:01.487Z,-3.33
2023-02-15T07:15:28.065Z,-3.33
2023-02-15T07:17:54.516Z,-3.40
2023-02-15T07:20:22.568Z,-3.44
2023-02-15T07:22:50.113Z,-3.31
2023-02-15T08:47:46.362Z,-3.22
2023-02-15T08:50:12.856Z,-3.26
2023-02-15T08:52:39.401Z,-3.18
2023-02-15T08:55:06.157Z,-3.08
2023-02-15T08:57:32.540Z,-3.46
2023-02-15T08:59:59.058Z,-3.36
2023-02-15T09:02:25.623Z,-3.23
2023-02-15T09:04:53.663Z,-2.90
2023-02-15T09:07:20.152Z,-2.65
2023-02-15T09:09:46.720Z,-2.76
2023-02-15T09:12:13.254Z,-2.91
2023-02-15T09:14:39.818Z,-2.91
2023-02-15T09:17:06.994Z,-2.77
2023-02-15T09:19:33.639Z,-2.73
2023-02-15T09:22:00.148Z,-2.54
2023-02-15T09:24:26.585Z,-2.73
2023-02-15T09:26:53.064Z,-2.61
2023-02-15T09:29:20.560Z,-2.86
2023-02-15T09:31:49.870Z,-2.61
2023-02-15T09:34:19.046Z,-2.44
2023-02-15T09:36:47.514Z,-2.60
2023-02-15T09:39:28.940Z,-2.69
2023-02-15T09:42:01.322Z,-2.65
2023-02-15T09:45:01.785Z,-2.56
2023-02-15T11:12:57.590Z,2.24
2023-02-15T13:11:54.691Z,10.15
2023-02-15T13:14:46.182Z,10.95
2023-02-15T13:17:14.615Z,10.81
2023-02-15T13:19:55.409Z,10.04
2023-02-15T13:22:30.041Z,9.40
2023-02-15T13:25:04.403Z,7.85
2023-02-15T13:27:38.675Z,7.11
2023-02-15T13:30:23.296Z,6.83
2023-02-15T13:32:52.259Z,5.61
2023-02-15T13:35:19.966Z,5.32
2023-02-15T13:38:15.794Z,4.89
2023-02-15T13:41:02.604Z,4.97
2023-02-15T13:44:00.404Z,4.89
2023-02-15T13:46:33.354Z,4.54
2023-02-15T13:49:37.256Z,4.49
2023-02-15T13:52:23.684Z,4.52
2023-02-15T13:55:18.168Z,4.68
2023-02-15T13:58:12.018Z,4.51
2023-02-15T14:00:41.476Z,4.42
2023-02-15T14:03:32.672Z,4.31
2023-02-15T14:06:15.376Z,4.54
2023-02-15T14:08:51.454Z,4.57
2023-02-15T14:11:20.592Z,4.63
2023-02-15T14:14:19.987Z,4.64
2023-02-15T14:17:07.117Z,4.75
2023-02-15T14:20:20.247Z,4.70
2023-02-15T14:23:15.488Z,4.68
2023-02-15T14:25:55.211Z,4.65
2023-02-15T14:28:31.141Z,4.66
2023-02-15T14:30:58.476Z,4.69
2023-02-15T14:33:35.294Z,4.73
2023-02-15T14:36:04.985Z,4.79
2023-02-15T14:38:46.449Z,4.74
2023-02-15T14:41:22.329Z,4.81
2023-02-15T14:44:00.750Z,4.77
2023-02-15T14:46:42.525Z,4.76
2023-02-15T14:49:16.510Z,4.66
2023-02-15T14:51:51.611Z,4.70
2023-02-15T14:54:18.243Z,4.62
2023-02-15T14:56:46.049Z,4.72
2023-02-15T14:59:12.445Z,4.73
2023-02-15T15:01:40.525Z,4.72
2023-02-15T15:04:10.212Z,4.70
2023-02-15T15:06:40.459Z,4.71
2023-02-15T15:09:19.533Z,4.82
2023-02-15T15:12:13.712Z,4.73
2023-02-15T15:14:46.786Z,4.70
2023-02-15T15:17:38.785Z,4.61
2023-02-15T15:20:26.723Z,4.75
2023-02-15T15:23:15.611Z,4.84
2023-02-15T15:26:25.948Z,4.69
2023-02-15T15:28:52.356Z,4.78
2023-02-15T15:31:40.648Z,4.80
2023-02-15T15:34:25.553Z,4.84
2023-02-15T15:37:29.330Z,4.73
2023-02-15T15:40:08.069Z,4.61
2023-02-15T15:43:28.895Z,4.66
2023-02-15T15:46:25.500Z,4.62
2023-02-15T15:48:53.374Z,4.63
2023-02-15T15:51:26.943Z,4.64
2023-02-15T15:53:54.629Z,4.55
2023-02-15T15:56:35.607Z,4.54
2023-02-15T15:59:17.072Z,4.52
2023-02-15T16:01:44.880Z,4.49
2023-02-15T16:04:13.987Z,4.33
2023-02-15T16:06:41.946Z,4.41
2023-02-15T16:09:19.264Z,4.39
2023-02-15T16:11:54.163Z,4.29
2023-02-15T16:14:31.435Z,4.30
2023-02-15T16:17:01.510Z,4.26
2023-02-15T16:19:34.699Z,4.27
2023-02-15T16:22:03.432Z,4.22
2023-02-15T16:24:48.146Z,4.15
2023-02-15T16:27:21.857Z,4.12
2023-02-15T16:29:48.426Z,4.17
2023-02-15T16:32:24.196Z,4.04
2023-02-15T16:34:59.371Z,3.97
2023-02-15T16:37:28.582Z,3.94
2023-02-15T16:39:56.314Z,3.85
2023-02-15T16:42:23.084Z,3.90
2023-02-15T16:44:55.562Z,3.92
2023-02-15T16:47:26.298Z,3.85
2023-02-15T16:49:55.007Z,3.82
2023-02-15T16:52:25.115Z,3.79
2023-02-15T16:55:05.990Z,3.73
2023-02-15T16:57:36.292Z,3.67
2023-02-15T17:00:07.058Z,3.62
2023-02-15T17:02:55.003Z,3.58
2023-02-15T17:05:22.642Z,3.55
2023-02-15T17:08:27.420Z,3.43
2023-02-15T17:10:59.945Z,3.41
2023-02-15T17:13:28.199Z,3.36
2023-02-15T17:16:01.209Z,3.33
2023-02-15T17:18:29.301Z,3.28
2023-02-15T17:20:59.996Z,3.27
2023-02-15T17:23:33.685Z,3.23
2023-02-15T17:26:03.530Z,3.16
2023-02-15T17:28:32.182Z,3.18
2023-02-15T17:30:59.606Z,3.13
2023-02-15T17:33:35.379Z,3.09
2023-02-15T17:36:06.152Z,3.07
2023-02-15T17:38:33.819Z,3.02
2023-02-15T17:41:00.665Z,2.99
2023-02-15T17:43:27.440Z,2.98
2023-02-15T17:45:54.386Z,2.97
2023-02-15T17:48:36.452Z,2.90
2023-02-15T17:51:05.976Z,2.95
2023-02-15T17:53:33.129Z,2.93
2023-02-15T17:55:59.572Z,2.94
2023-02-15T17:58:26.071Z,2.88
2023-02-15T18:01:16.915Z,2.85
2023-02-15T18:04:09.979Z,2.75
2023-02-15T18:06:58.050Z,2.73
2023-02-15T18:09:43.640Z,2.74
2023-02-15T18:12:27.967Z,2.70
2023-02-15T18:14:55.982Z,2.66
2023-02-15T18:17:46.368Z,2.62
2023-02-15T18:20:20.431Z,2.57
2023-02-15T18:22:47.019Z,2.54
2023-02-15T18:25:15.357Z,2.46
2023-02-15T18:27:41.805Z,2.42
2023-02-15T18:30:09.031Z,2.39
2023-02-15T18:32:39.765Z,2.38
2023-02-15T18:35:06.736Z,2.36
2023-02-15T18:37:34.050Z,2.35
2023-02-15T18:40:03.604Z,2.33
2023-02-15T18:42:36.052Z,2.29
2023-02-15T18:45:13.027Z,2.27
2023-02-15T18:47:39.649Z,2.26
2023-02-15T18:50:07.342Z,2.25
2023-02-15T18:52:37.221Z,2.20
2023-02-15T18:55:17.433Z,2.19
2023-02-15T18:57:45.723Z,2.18
2023-02-15T19:00:25.691Z,2.14
2023-02-15T19:02:52.209Z,2.08
2023-02-15T19:05:18.684Z,2.07
